Beothuk — ZCXL3 — position and weather

sailwx.info

Track history (hours):
 
Tides and Currents Weather Stations Pressure Air Temp Water Temp Dewpoint Dewpoint Depression Visibility Wind Speed Wind Dir Waves Ship Positions

Beothuk

Last reported at 2017-Oct-19 01:57 UTC. Time now 2017-Oct-19 02:13 UTC.
Position N 25°44' W 080°13'.

Length 31 m; draft 2.2 m.

Type: Pleasure craft. MMSI: 319257000.

Date/timePositionNaut miles runAvg speedWind from/ knotsBaromVisibWave heightAir tempDewpointWater temp
2017-Oct-19 01:57N 25°44' W 080°13'0 0.0
2017-Oct-19 01:25N 25°44' W 080°13'0 0.0
2017-Oct-19 00:55N 25°44' W 080°13'0 0.0
2017-Oct-19 00:27N 25°44' W 080°13'0 0.0
2017-Oct-18 23:55N 25°44' W 080°13'0 0.0
2017-Oct-18 23:25N 25°44' W 080°13'0 0.0
2017-Oct-18 22:55N 25°44' W 080°13'0 0.0
2017-Oct-18 22:25N 25°44' W 080°13'0 0.0
2017-Oct-18 21:57N 25°44' W 080°13'0 0.0
2017-Oct-18 21:27N 25°44' W 080°13'0 0.0
2017-Oct-18 20:58N 25°44' W 080°13'0 0.0
2017-Oct-18 20:27N 25°44' W 080°13'0 0.0
2017-Oct-18 19:57N 25°44' W 080°13'0 0.0
2017-Oct-18 19:27N 25°44' W 080°13'0 0.0
2017-Oct-18 18:57N 25°44' W 080°13'0 0.0
2017-Oct-18 18:27N 25°44' W 080°13'0 0.0
2017-Oct-18 17:57N 25°44' W 080°13'0 0.0
2017-Oct-18 17:27N 25°44' W 080°13'0 0.0
2017-Oct-18 16:57N 25°44' W 080°13'0 0.0
2017-Oct-18 16:27N 25°44' W 080°13'0 0.0
2017-Oct-18 15:57N 25°44' W 080°13'0 0.0
2017-Oct-18 15:27N 25°44' W 080°13'0 0.0
2017-Oct-18 14:55N 25°44' W 080°13'0 0.0
2017-Oct-18 13:55N 25°44' W 080°13'0 0.0
2017-Oct-18 13:27N 25°44' W 080°13'0 0.0
2017-Oct-18 12:57N 25°44' W 080°13'0 0.0
2017-Oct-18 12:27N 25°44' W 080°13'0 0.0
2017-Oct-18 11:55N 25°44' W 080°13'0 0.0
2017-Oct-18 11:25N 25°44' W 080°13'0 0.0
2017-Oct-18 10:58N 25°44' W 080°13'0 0.0
2017-Oct-18 10:28N 25°44' W 080°13'0 0.0
2017-Oct-18 09:58N 25°44' W 080°13'0 0.0
2017-Oct-18 09:28N 25°44' W 080°13'0 0.0
2017-Oct-18 08:58N 25°44' W 080°13'0 0.0
2017-Oct-18 08:28N 25°44' W 080°13'0 0.0
2017-Oct-18 07:58N 25°44' W 080°13'0 0.0
2017-Oct-18 07:27N 25°44' W 080°13'0 0.0
2017-Oct-18 06:57N 25°44' W 080°13'0 0.0
2017-Oct-18 06:27N 25°44' W 080°13'0 0.0
2017-Oct-18 05:55N 25°44' W 080°13'0 0.0
2017-Oct-18 05:19N 25°44' W 080°13'0 0.0
2017-Oct-18 04:57N 25°44' W 080°13'0 0.0
2017-Oct-18 04:27N 25°44' W 080°13'0 0.0
2017-Oct-18 03:57N 25°44' W 080°13'0 0.0
2017-Oct-18 03:25N 25°44' W 080°13'0 0.0
2017-Oct-18 02:57N 25°44' W 080°13'0 0.0
2017-Oct-18 02:27N 25°44' W 080°13'0 0.0
2017-Oct-18 01:57N 25°44' W 080°13'0 0.0
2017-Oct-18 01:27N 25°44' W 080°13'0 0.0
2017-Oct-18 00:55N 25°44' W 080°13'0 0.0
2017-Oct-18 00:27N 25°44' W 080°13'0 0.0
2017-Oct-17 23:58N 25°44' W 080°13'0 0.0
2017-Oct-17 23:28N 25°44' W 080°13'0 0.0
2017-Oct-17 22:58N 25°44' W 080°13'0 0.0
2017-Oct-17 22:28N 25°44' W 080°13'1 2.1
2017-Oct-17 22:00N 25°44' W 080°12'3 5.4
2017-Oct-17 21:31N 25°46' W 080°10'510.7
2017-Oct-17 21:00N 25°46' W 080°04'611.2
2017-Oct-17 20:30N 25°44' W 079°59'611.3
2017-Oct-17 20:00N 25°43' W 079°53'12 0.3
2017-Oct-15 19:51N 25°54' W 079°48'3 8.8
2017-Oct-15 19:30N 25°56' W 079°50'5 9.1
2017-Oct-15 19:00N 25°58' W 079°54'5 9.2
2017-Oct-15 18:30N 26°01' W 079°58'5 9.9
2017-Oct-15 18:00N 26°04' W 080°03'4 8.8
2017-Oct-15 17:30N 26°06' W 080°07'1 1.5
2017-Oct-15 16:52N 26°07' W 080°06'0 0.0
2017-Oct-15 16:19N 26°07' W 080°06'0 0.0
2017-Oct-15 15:49N 26°07' W 080°06'0 0.0
2017-Oct-15 15:22N 26°07' W 080°06'0 0.0
2017-Oct-15 14:52N 26°07' W 080°06'0 0.0
2017-Oct-15 13:52N 26°07' W 080°06'0 0.0
2017-Oct-15 13:22N 26°07' W 080°06'0 0.0
2017-Oct-15 12:52N 26°07' W 080°06'0 0.0
2017-Oct-15 12:22N 26°07' W 080°06'0 0.0
2017-Oct-15 11:55N 26°07' W 080°06'0 0.0
2017-Oct-15 11:22N 26°07' W 080°06'0 0.0
2017-Oct-15 10:55N 26°07' W 080°06'0 0.0
2017-Oct-15 10:28N 26°07' W 080°06'0 0.0
2017-Oct-15 09:55N 26°07' W 080°06'0 0.0
2017-Oct-15 09:28N 26°07' W 080°06'0 0.0
2017-Oct-15 08:58N 26°07' W 080°06'0 0.0
2017-Oct-15 08:28N 26°07' W 080°06'0 0.0
2017-Oct-15 07:58N 26°07' W 080°06'0 0.0
2017-Oct-15 07:28N 26°07' W 080°06'0 0.0
2017-Oct-15 06:58N 26°07' W 080°06'0 0.0
2017-Oct-15 06:28N 26°07' W 080°06'0 0.0
2017-Oct-15 05:58N 26°07' W 080°06'0 0.0
2017-Oct-15 05:28N 26°07' W 080°06'0 0.0
2017-Oct-15 04:58N 26°07' W 080°06'0 0.0
2017-Oct-15 04:16N 26°07' W 080°06'0 0.0
2017-Oct-15 03:46N 26°07' W 080°06'0 0.0
2017-Oct-15 03:13N 26°07' W 080°06'0 0.0
2017-Oct-15 02:52N 26°07' W 080°06'0 0.0
2017-Oct-15 02:22N 26°07' W 080°06'0 0.0
2017-Oct-15 01:52N 26°07' W 080°06'0 0.0
2017-Oct-15 01:19N 26°07' W 080°06'0 0.0
2017-Oct-15 00:49N 26°07' W 080°06'0 0.0
2017-Oct-15 00:22N 26°07' W 080°06'0 0.0
2017-Oct-14 23:52N 26°07' W 080°06'0 0.0
2017-Oct-14 23:19N 26°07' W 080°06'0 0.0
2017-Oct-14 22:52N 26°07' W 080°06'0 0.0
2017-Oct-14 22:07N 26°07' W 080°06'0 0.0
2017-Oct-14 21:52N 26°07' W 080°06'0 0.0
2017-Oct-14 21:19N 26°07' W 080°06'0 0.0
2017-Oct-14 20:19N 26°07' W 080°06'0 0.0
2017-Oct-14 19:55N 26°07' W 080°06'0 0.0
2017-Oct-14 19:25N 26°07' W 080°06'0 0.0
2017-Oct-14 18:55N 26°07' W 080°06'0 0.0
2017-Oct-14 18:28N 26°07' W 080°06'0 0.0
2017-Oct-14 17:13N 26°07' W 080°06'0 0.0
2017-Oct-14 16:55N 26°07' W 080°06'0 0.0
2017-Oct-14 16:28N 26°07' W 080°06'0 0.0
2017-Oct-14 15:58N 26°07' W 080°06'0 0.0
2017-Oct-14 15:28N 26°07' W 080°06'0 0.0
2017-Oct-14 14:43N 26°07' W 080°06'0 0.0
2017-Oct-14 14:16N 26°07' W 080°06'0 0.0
2017-Oct-14 13:46N 26°07' W 080°06'0 0.0
2017-Oct-14 13:19N 26°07' W 080°06'0 0.0
2017-Oct-14 12:52N 26°07' W 080°06'0 0.0
2017-Oct-14 12:22N 26°07' W 080°06'0 0.0
2017-Oct-14 11:52N 26°07' W 080°06'0 0.0
2017-Oct-14 11:19N 26°07' W 080°06'0 0.0
2017-Oct-14 10:52N 26°07' W 080°06'0 0.0
2017-Oct-14 10:22N 26°07' W 080°06'0 0.0
2017-Oct-14 09:52N 26°07' W 080°06'0 0.0
2017-Oct-14 09:22N 26°07' W 080°06'0 0.0
2017-Oct-14 08:49N 26°07' W 080°06'0 0.0
2017-Oct-14 08:22N 26°07' W 080°06'0 0.0
2017-Oct-14 07:58N 26°07' W 080°06'0 0.0
2017-Oct-14 07:25N 26°07' W 080°06'0 0.0
2017-Oct-14 06:58N 26°07' W 080°06'0 0.0
2017-Oct-14 06:28N 26°07' W 080°06'0 0.0
2017-Oct-14 05:40N 26°07' W 080°06'0 0.0
2017-Oct-14 05:28N 26°07' W 080°06'0 0.0
2017-Oct-14 04:58N 26°07' W 080°06'0 0.0
2017-Oct-14 04:28N 26°07' W 080°06'0 0.0
2017-Oct-14 03:43N 26°07' W 080°06'0 0.0
2017-Oct-14 03:25N 26°07' W 080°06'0 0.0
2017-Oct-14 02:58N 26°07' W 080°06'0 0.0
2017-Oct-14 02:25N 26°07' W 080°06'0 0.0
2017-Oct-14 01:58N 26°07' W 080°06'0 0.0
2017-Oct-13 23:16N 26°07' W 080°06'0 0.0
2017-Oct-13 22:52N 26°07' W 080°06'0 0.0
2017-Oct-13 22:22N 26°07' W 080°06'0 0.0
2017-Oct-13 21:52N 26°07' W 080°06'0 0.0
2017-Oct-13 21:22N 26°07' W 080°06'0 0.0
2017-Oct-13 20:52N 26°07' W 080°06'0 0.0
2017-Oct-13 20:22N 26°07' W 080°06'0 0.0
2017-Oct-13 19:52N 26°07' W 080°06'0 0.0
2017-Oct-13 19:19N 26°07' W 080°06'0 0.0
2017-Oct-13 18:37N 26°07' W 080°06'0 0.0
2017-Oct-13 18:19N 26°07' W 080°06'0 0.0
2017-Oct-13 17:55N 26°07' W 080°06'0 0.0
2017-Oct-13 17:28N 26°07' W 080°06'0 0.0
2017-Oct-13 16:07N 26°07' W 080°06'0 0.0
2017-Oct-13 15:58N 26°07' W 080°06'0 0.0
2017-Oct-13 15:16N 26°07' W 080°06'0 0.0
2017-Oct-13 14:58N 26°07' W 080°06'0 0.0
2017-Oct-13 14:28N 26°07' W 080°06'0 0.0
2017-Oct-13 13:43N 26°07' W 080°06'0 0.0
2017-Oct-13 13:25N 26°07' W 080°06'0 0.0
2017-Oct-13 12:58N 26°07' W 080°06'0 0.0
2017-Oct-13 12:28N 26°07' W 080°06'0 0.0
2017-Oct-13 11:55N 26°07' W 080°06'0 0.0
2017-Oct-13 11:28N 26°07' W 080°06'0 0.0
2017-Oct-13 10:46N 26°07' W 080°06'0 0.0
2017-Oct-13 10:16N 26°07' W 080°06'0 0.0
2017-Oct-13 09:52N 26°07' W 080°06'0 0.0
2017-Oct-13 09:16N 26°07' W 080°06'0 0.0
2017-Oct-13 08:43N 26°07' W 080°06'0 0.0
2017-Oct-13 08:19N 26°07' W 080°06'0 0.0
2017-Oct-13 07:52N 26°07' W 080°06'0 0.0
2017-Oct-13 07:19N 26°07' W 080°06'0 0.0
2017-Oct-13 06:52N 26°07' W 080°06'0 0.0
2017-Oct-13 06:22N 26°07' W 080°06'0 0.0
2017-Oct-13 05:49N 26°07' W 080°06'0 0.0
2017-Oct-13 05:19N 26°07' W 080°06'0 0.0
2017-Oct-13 04:49N 26°07' W 080°06'0 0.0
2017-Oct-13 04:25N 26°07' W 080°06'0 0.0
2017-Oct-13 03:58N 26°07' W 080°06'0 0.0
2017-Oct-13 03:28N 26°07' W 080°06'0 0.0
2017-Oct-13 02:58N 26°07' W 080°06'0 0.0
2017-Oct-13 02:28N 26°07' W 080°06'0 0.0
2017-Oct-13 01:58N 26°07' W 080°06'0 0.0
2017-Oct-13 01:28N 26°07' W 080°06'0 0.0
2017-Oct-13 00:58N 26°07' W 080°06'0 0.0
2017-Oct-13 00:28N 26°07' W 080°06'0 0.0
2017-Oct-12 23:46N 26°07' W 080°06'0 0.0
2017-Oct-12 23:28N 26°07' W 080°06'0 0.0
2017-Oct-12 22:58N 26°07' W 080°06'0 0.0
2017-Oct-12 22:28N 26°07' W 080°06'0 0.0
2017-Oct-12 21:58N 26°07' W 080°06'0 0.0
2017-Oct-12 21:28N 26°07' W 080°06'0 0.0
2017-Oct-12 20:43N 26°07' W 080°06'0 0.0
2017-Oct-12 20:16N 26°07' W 080°06'0 0.0
2017-Oct-12 19:49N 26°07' W 080°06'0 0.0
2017-Oct-12 19:22N 26°07' W 080°06'0 0.0
2017-Oct-12 18:31N 26°07' W 080°06'0 0.0
2017-Oct-12 18:22N 26°07' W 080°06'0 0.0
2017-Oct-12 17:52N 26°07' W 080°06'0 0.0
2017-Oct-12 17:22N 26°07' W 080°06'0 0.0
2017-Oct-12 16:52N 26°07' W 080°06'0 0.0
2017-Oct-12 16:19N 26°07' W 080°06'0 0.0
2017-Oct-12 15:52N 26°07' W 080°06'0 0.0
2017-Oct-12 15:19N 26°07' W 080°06'0 0.0
2017-Oct-12 14:52N 26°07' W 080°06'0 0.0
2017-Oct-12 14:22N 26°07' W 080°06'0 0.0
2017-Oct-12 13:49N 26°07' W 080°06'0 0.0
2017-Oct-12 13:25N 26°07' W 080°06'0 0.0
2017-Oct-12 12:58N 26°07' W 080°06'0 0.0
2017-Oct-12 12:28N 26°07' W 080°06'0 0.0
2017-Oct-12 11:55N 26°07' W 080°06'0 0.0
2017-Oct-12 11:28N 26°07' W 080°06'0 0.0
2017-Oct-12 10:58N 26°07' W 080°06'0 0.0
2017-Oct-12 10:28N 26°07' W 080°06'0 0.0
2017-Oct-12 09:46N 26°07' W 080°06'0 0.0
2017-Oct-12 09:25N 26°07' W 080°06'0 0.0
2017-Oct-12 08:58N 26°07' W 080°06'0 0.0
2017-Oct-12 08:28N 26°07' W 080°06'0 0.0
2017-Oct-12 07:58N 26°07' W 080°06'0 0.0
2017-Oct-12 07:16N 26°07' W 080°06'0 0.0
2017-Oct-12 06:46N 26°07' W 080°06'0 0.0
2017-Oct-12 06:19N 26°07' W 080°06'0 0.0
2017-Oct-12 05:52N 26°07' W 080°06'0 0.0
2017-Oct-12 05:22N 26°07' W 080°06'0 0.0
2017-Oct-12 04:52N 26°07' W 080°06'0 0.0
2017-Oct-12 04:22N 26°07' W 080°06'0 0.0
2017-Oct-12 03:52N 26°07' W 080°06'0 0.0
2017-Oct-12 03:22N 26°07' W 080°06'0 0.0
2017-Oct-12 02:52N 26°07' W 080°06'0 0.0
2017-Oct-12 02:22N 26°07' W 080°06'0 0.0
2017-Oct-12 01:52N 26°07' W 080°06'0 0.0
2017-Oct-12 01:22N 26°07' W 080°06'0 0.0
2017-Oct-12 00:52N 26°07' W 080°06'0 0.0
2017-Oct-12 00:19N 26°07' W 080°06'0 0.0
2017-Oct-11 23:55N 26°07' W 080°06'0 0.0
2017-Oct-11 23:28N 26°07' W 080°06'0 0.0
2017-Oct-11 22:58N 26°07' W 080°06'0 0.0
2017-Oct-11 22:28N 26°07' W 080°06'0 0.0
2017-Oct-11 21:58N 26°07' W 080°06'0 0.0
2017-Oct-11 21:28N 26°07' W 080°06'0 0.0
2017-Oct-11 20:58N 26°07' W 080°06'0 0.0
2017-Oct-11 20:16N 26°07' W 080°06'0 0.0
2017-Oct-11 19:58N 26°07' W 080°06'0 0.0
2017-Oct-11 19:25N 26°07' W 080°06'0 0.0
2017-Oct-11 18:55N 26°07' W 080°06'0 0.0
2017-Oct-11 18:28N 26°07' W 080°06'0 0.0
2017-Oct-11 17:58N 26°07' W 080°06'0 0.0
2017-Oct-11 17:28N 26°07' W 080°06'0 0.0
2017-Oct-11 16:34N 26°07' W 080°06'0 0.0
2017-Oct-10 23:52N 26°07' W 080°06'0 0.0
2017-Oct-10 23:22N 26°07' W 080°06'0 0.0
2017-Oct-10 22:52N 26°07' W 080°06'0 0.0
2017-Oct-10 22:22N 26°07' W 080°06'0 0.0
2017-Oct-10 21:52N 26°07' W 080°06'0 0.0
2017-Oct-10 21:07N 26°07' W 080°06'0 0.0
2017-Oct-10 20:49N 26°07' W 080°06'0 0.0
2017-Oct-10 20:28N 26°07' W 080°06'0 0.0
2017-Oct-10 19:58N 26°07' W 080°06'0 0.0
2017-Oct-10 19:28N 26°07' W 080°06'0 0.0
2017-Oct-10 18:58N 26°07' W 080°06'0 0.0
2017-Oct-10 18:28N 26°07' W 080°06'  
Track history (hours):
 
Tides and Currents Weather Stations Pressure Air Temp Water Temp Dewpoint Dewpoint Depression Visibility Wind Speed Wind Dir Waves Ship Positions

Beothuk

Last reported at 2017-Oct-19 01:57 UTC. Time now 2017-Oct-19 02:13 UTC.
Position N 25°44' W 080°13'.

Length 31 m; draft 2.2 m.

Type: Pleasure craft. MMSI: 319257000.

Date/timePositionNaut miles runAvg speedWind from/ knotsBaromVisibWave heightAir tempDewpointWater temp
2017-Oct-19 01:57N 25°44' W 080°13'0 0.0
2017-Oct-19 01:25N 25°44' W 080°13'0 0.0
2017-Oct-19 00:55N 25°44' W 080°13'0 0.0
2017-Oct-19 00:27N 25°44' W 080°13'0 0.0
2017-Oct-18 23:55N 25°44' W 080°13'0 0.0
2017-Oct-18 23:25N 25°44' W 080°13'0 0.0
2017-Oct-18 22:55N 25°44' W 080°13'0 0.0
2017-Oct-18 22:25N 25°44' W 080°13'0 0.0
2017-Oct-18 21:57N 25°44' W 080°13'0 0.0
2017-Oct-18 21:27N 25°44' W 080°13'0 0.0
2017-Oct-18 20:58N 25°44' W 080°13'0 0.0
2017-Oct-18 20:27N 25°44' W 080°13'0 0.0
2017-Oct-18 19:57N 25°44' W 080°13'0 0.0
2017-Oct-18 19:27N 25°44' W 080°13'0 0.0
2017-Oct-18 18:57N 25°44' W 080°13'0 0.0
2017-Oct-18 18:27N 25°44' W 080°13'0 0.0
2017-Oct-18 17:57N 25°44' W 080°13'0 0.0
2017-Oct-18 17:27N 25°44' W 080°13'0 0.0
2017-Oct-18 16:57N 25°44' W 080°13'0 0.0
2017-Oct-18 16:27N 25°44' W 080°13'0 0.0
2017-Oct-18 15:57N 25°44' W 080°13'0 0.0
2017-Oct-18 15:27N 25°44' W 080°13'0 0.0
2017-Oct-18 14:55N 25°44' W 080°13'0 0.0
2017-Oct-18 13:55N 25°44' W 080°13'0 0.0
2017-Oct-18 13:27N 25°44' W 080°13'0 0.0
2017-Oct-18 12:57N 25°44' W 080°13'0 0.0
2017-Oct-18 12:27N 25°44' W 080°13'0 0.0
2017-Oct-18 11:55N 25°44' W 080°13'0 0.0
2017-Oct-18 11:25N 25°44' W 080°13'0 0.0
2017-Oct-18 10:58N 25°44' W 080°13'0 0.0
2017-Oct-18 10:28N 25°44' W 080°13'0 0.0
2017-Oct-18 09:58N 25°44' W 080°13'0 0.0
2017-Oct-18 09:28N 25°44' W 080°13'0 0.0
2017-Oct-18 08:58N 25°44' W 080°13'0 0.0
2017-Oct-18 08:28N 25°44' W 080°13'0 0.0
2017-Oct-18 07:58N 25°44' W 080°13'0 0.0
2017-Oct-18 07:27N 25°44' W 080°13'0 0.0
2017-Oct-18 06:57N 25°44' W 080°13'0 0.0
2017-Oct-18 06:27N 25°44' W 080°13'0 0.0
2017-Oct-18 05:55N 25°44' W 080°13'0 0.0
2017-Oct-18 05:19N 25°44' W 080°13'0 0.0
2017-Oct-18 04:57N 25°44' W 080°13'0 0.0
2017-Oct-18 04:27N 25°44' W 080°13'0 0.0
2017-Oct-18 03:57N 25°44' W 080°13'0 0.0
2017-Oct-18 03:25N 25°44' W 080°13'0 0.0
2017-Oct-18 02:57N 25°44' W 080°13'0 0.0
2017-Oct-18 02:27N 25°44' W 080°13'0 0.0
2017-Oct-18 01:57N 25°44' W 080°13'0 0.0
2017-Oct-18 01:27N 25°44' W 080°13'0 0.0
2017-Oct-18 00:55N 25°44' W 080°13'0 0.0
2017-Oct-18 00:27N 25°44' W 080°13'0 0.0
2017-Oct-17 23:58N 25°44' W 080°13'0 0.0
2017-Oct-17 23:28N 25°44' W 080°13'0 0.0
2017-Oct-17 22:58N 25°44' W 080°13'0 0.0
2017-Oct-17 22:28N 25°44' W 080°13'1 2.1
2017-Oct-17 22:00N 25°44' W 080°12'3 5.4
2017-Oct-17 21:31N 25°46' W 080°10'510.7
2017-Oct-17 21:00N 25°46' W 080°04'611.2
2017-Oct-17 20:30N 25°44' W 079°59'611.3
2017-Oct-17 20:00N 25°43' W 079°53'12 0.3
2017-Oct-15 19:51N 25°54' W 079°48'3 8.8
2017-Oct-15 19:30N 25°56' W 079°50'5 9.1
2017-Oct-15 19:00N 25°58' W 079°54'5 9.2
2017-Oct-15 18:30N 26°01' W 079°58'5 9.9
2017-Oct-15 18:00N 26°04' W 080°03'4 8.8
2017-Oct-15 17:30N 26°06' W 080°07'1 1.5
2017-Oct-15 16:52N 26°07' W 080°06'0 0.0
2017-Oct-15 16:19N 26°07' W 080°06'0 0.0
2017-Oct-15 15:49N 26°07' W 080°06'0 0.0
2017-Oct-15 15:22N 26°07' W 080°06'0 0.0
2017-Oct-15 14:52N 26°07' W 080°06'0 0.0
2017-Oct-15 13:52N 26°07' W 080°06'0 0.0
2017-Oct-15 13:22N 26°07' W 080°06'0 0.0
2017-Oct-15 12:52N 26°07' W 080°06'0 0.0
2017-Oct-15 12:22N 26°07' W 080°06'0 0.0
2017-Oct-15 11:55N 26°07' W 080°06'0 0.0
2017-Oct-15 11:22N 26°07' W 080°06'0 0.0
2017-Oct-15 10:55N 26°07' W 080°06'0 0.0
2017-Oct-15 10:28N 26°07' W 080°06'0 0.0
2017-Oct-15 09:55N 26°07' W 080°06'0 0.0
2017-Oct-15 09:28N 26°07' W 080°06'0 0.0
2017-Oct-15 08:58N 26°07' W 080°06'0 0.0
2017-Oct-15 08:28N 26°07' W 080°06'0 0.0
2017-Oct-15 07:58N 26°07' W 080°06'0 0.0
2017-Oct-15 07:28N 26°07' W 080°06'0 0.0
2017-Oct-15 06:58N 26°07' W 080°06'0 0.0
2017-Oct-15 06:28N 26°07' W 080°06'0 0.0
2017-Oct-15 05:58N 26°07' W 080°06'0 0.0
2017-Oct-15 05:28N 26°07' W 080°06'0 0.0
2017-Oct-15 04:58N 26°07' W 080°06'0 0.0
2017-Oct-15 04:16N 26°07' W 080°06'0 0.0
2017-Oct-15 03:46N 26°07' W 080°06'0 0.0
2017-Oct-15 03:13N 26°07' W 080°06'0 0.0
2017-Oct-15 02:52N 26°07' W 080°06'0 0.0
2017-Oct-15 02:22N 26°07' W 080°06'0 0.0
2017-Oct-15 01:52N 26°07' W 080°06'0 0.0
2017-Oct-15 01:19N 26°07' W 080°06'0 0.0
2017-Oct-15 00:49N 26°07' W 080°06'0 0.0
2017-Oct-15 00:22N 26°07' W 080°06'0 0.0
2017-Oct-14 23:52N 26°07' W 080°06'0 0.0
2017-Oct-14 23:19N 26°07' W 080°06'0 0.0
2017-Oct-14 22:52N 26°07' W 080°06'0 0.0
2017-Oct-14 22:07N 26°07' W 080°06'0 0.0
2017-Oct-14 21:52N 26°07' W 080°06'0 0.0
2017-Oct-14 21:19N 26°07' W 080°06'0 0.0
2017-Oct-14 20:19N 26°07' W 080°06'0 0.0
2017-Oct-14 19:55N 26°07' W 080°06'0 0.0
2017-Oct-14 19:25N 26°07' W 080°06'0 0.0
2017-Oct-14 18:55N 26°07' W 080°06'0 0.0
2017-Oct-14 18:28N 26°07' W 080°06'0 0.0
2017-Oct-14 17:13N 26°07' W 080°06'0 0.0
2017-Oct-14 16:55N 26°07' W 080°06'0 0.0
2017-Oct-14 16:28N 26°07' W 080°06'0 0.0
2017-Oct-14 15:58N 26°07' W 080°06'0 0.0
2017-Oct-14 15:28N 26°07' W 080°06'0 0.0
2017-Oct-14 14:43N 26°07' W 080°06'0 0.0
2017-Oct-14 14:16N 26°07' W 080°06'0 0.0
2017-Oct-14 13:46N 26°07' W 080°06'0 0.0
2017-Oct-14 13:19N 26°07' W 080°06'0 0.0
2017-Oct-14 12:52N 26°07' W 080°06'0 0.0
2017-Oct-14 12:22N 26°07' W 080°06'0 0.0
2017-Oct-14 11:52N 26°07' W 080°06'0 0.0
2017-Oct-14 11:19N 26°07' W 080°06'0 0.0
2017-Oct-14 10:52N 26°07' W 080°06'0 0.0
2017-Oct-14 10:22N 26°07' W 080°06'0 0.0
2017-Oct-14 09:52N 26°07' W 080°06'0 0.0
2017-Oct-14 09:22N 26°07' W 080°06'0 0.0
2017-Oct-14 08:49N 26°07' W 080°06'0 0.0
2017-Oct-14 08:22N 26°07' W 080°06'0 0.0
2017-Oct-14 07:58N 26°07' W 080°06'0 0.0
2017-Oct-14 07:25N 26°07' W 080°06'0 0.0
2017-Oct-14 06:58N 26°07' W 080°06'0 0.0
2017-Oct-14 06:28N 26°07' W 080°06'0 0.0
2017-Oct-14 05:40N 26°07' W 080°06'0 0.0
2017-Oct-14 05:28N 26°07' W 080°06'0 0.0
2017-Oct-14 04:58N 26°07' W 080°06'0 0.0
2017-Oct-14 04:28N 26°07' W 080°06'0 0.0
2017-Oct-14 03:43N 26°07' W 080°06'0 0.0
2017-Oct-14 03:25N 26°07' W 080°06'0 0.0
2017-Oct-14 02:58N 26°07' W 080°06'0 0.0
2017-Oct-14 02:25N 26°07' W 080°06'0 0.0
2017-Oct-14 01:58N 26°07' W 080°06'0 0.0
2017-Oct-13 23:16N 26°07' W 080°06'0 0.0
2017-Oct-13 22:52N 26°07' W 080°06'0 0.0
2017-Oct-13 22:22N 26°07' W 080°06'0 0.0
2017-Oct-13 21:52N 26°07' W 080°06'0 0.0
2017-Oct-13 21:22N 26°07' W 080°06'0 0.0
2017-Oct-13 20:52N 26°07' W 080°06'0 0.0
2017-Oct-13 20:22N 26°07' W 080°06'0 0.0
2017-Oct-13 19:52N 26°07' W 080°06'0 0.0
2017-Oct-13 19:19N 26°07' W 080°06'0 0.0
2017-Oct-13 18:37N 26°07' W 080°06'0 0.0
2017-Oct-13 18:19N 26°07' W 080°06'0 0.0
2017-Oct-13 17:55N 26°07' W 080°06'0 0.0
2017-Oct-13 17:28N 26°07' W 080°06'0 0.0
2017-Oct-13 16:07N 26°07' W 080°06'0 0.0
2017-Oct-13 15:58N 26°07' W 080°06'0 0.0
2017-Oct-13 15:16N 26°07' W 080°06'0 0.0
2017-Oct-13 14:58N 26°07' W 080°06'0 0.0
2017-Oct-13 14:28N 26°07' W 080°06'0 0.0
2017-Oct-13 13:43N 26°07' W 080°06'0 0.0
2017-Oct-13 13:25N 26°07' W 080°06'0 0.0
2017-Oct-13 12:58N 26°07' W 080°06'0 0.0
2017-Oct-13 12:28N 26°07' W 080°06'0 0.0
2017-Oct-13 11:55N 26°07' W 080°06'0 0.0
2017-Oct-13 11:28N 26°07' W 080°06'0 0.0
2017-Oct-13 10:46N 26°07' W 080°06'0 0.0
2017-Oct-13 10:16N 26°07' W 080°06'0 0.0
2017-Oct-13 09:52N 26°07' W 080°06'0 0.0
2017-Oct-13 09:16N 26°07' W 080°06'0 0.0
2017-Oct-13 08:43N 26°07' W 080°06'0 0.0
2017-Oct-13 08:19N 26°07' W 080°06'0 0.0
2017-Oct-13 07:52N 26°07' W 080°06'0 0.0
2017-Oct-13 07:19N 26°07' W 080°06'0 0.0
2017-Oct-13 06:52N 26°07' W 080°06'0 0.0
2017-Oct-13 06:22N 26°07' W 080°06'0 0.0
2017-Oct-13 05:49N 26°07' W 080°06'0 0.0
2017-Oct-13 05:19N 26°07' W 080°06'0 0.0
2017-Oct-13 04:49N 26°07' W 080°06'0 0.0
2017-Oct-13 04:25N 26°07' W 080°06'0 0.0
2017-Oct-13 03:58N 26°07' W 080°06'0 0.0
2017-Oct-13 03:28N 26°07' W 080°06'0 0.0
2017-Oct-13 02:58N 26°07' W 080°06'0 0.0
2017-Oct-13 02:28N 26°07' W 080°06'0 0.0
2017-Oct-13 01:58N 26°07' W 080°06'0 0.0
2017-Oct-13 01:28N 26°07' W 080°06'0 0.0
2017-Oct-13 00:58N 26°07' W 080°06'0 0.0
2017-Oct-13 00:28N 26°07' W 080°06'0 0.0
2017-Oct-12 23:46N 26°07' W 080°06'0 0.0
2017-Oct-12 23:28N 26°07' W 080°06'0 0.0
2017-Oct-12 22:58N 26°07' W 080°06'0 0.0
2017-Oct-12 22:28N 26°07' W 080°06'0 0.0
2017-Oct-12 21:58N 26°07' W 080°06'0 0.0
2017-Oct-12 21:28N 26°07' W 080°06'0 0.0
2017-Oct-12 20:43N 26°07' W 080°06'0 0.0
2017-Oct-12 20:16N 26°07' W 080°06'0 0.0
2017-Oct-12 19:49N 26°07' W 080°06'0 0.0
2017-Oct-12 19:22N 26°07' W 080°06'0 0.0
2017-Oct-12 18:31N 26°07' W 080°06'0 0.0
2017-Oct-12 18:22N 26°07' W 080°06'0 0.0
2017-Oct-12 17:52N 26°07' W 080°06'0 0.0
2017-Oct-12 17:22N 26°07' W 080°06'0 0.0
2017-Oct-12 16:52N 26°07' W 080°06'0 0.0
2017-Oct-12 16:19N 26°07' W 080°06'0 0.0
2017-Oct-12 15:52N 26°07' W 080°06'0 0.0
2017-Oct-12 15:19N 26°07' W 080°06'0 0.0
2017-Oct-12 14:52N 26°07' W 080°06'0 0.0
2017-Oct-12 14:22N 26°07' W 080°06'0 0.0
2017-Oct-12 13:49N 26°07' W 080°06'0 0.0
2017-Oct-12 13:25N 26°07' W 080°06'0 0.0
2017-Oct-12 12:58N 26°07' W 080°06'0 0.0
2017-Oct-12 12:28N 26°07' W 080°06'0 0.0
2017-Oct-12 11:55N 26°07' W 080°06'0 0.0
2017-Oct-12 11:28N 26°07' W 080°06'0 0.0
2017-Oct-12 10:58N 26°07' W 080°06'0 0.0
2017-Oct-12 10:28N 26°07' W 080°06'0 0.0
2017-Oct-12 09:46N 26°07' W 080°06'0 0.0
2017-Oct-12 09:25N 26°07' W 080°06'0 0.0
2017-Oct-12 08:58N 26°07' W 080°06'0 0.0
2017-Oct-12 08:28N 26°07' W 080°06'0 0.0
2017-Oct-12 07:58N 26°07' W 080°06'0 0.0
2017-Oct-12 07:16N 26°07' W 080°06'0 0.0
2017-Oct-12 06:46N 26°07' W 080°06'0 0.0
2017-Oct-12 06:19N 26°07' W 080°06'0 0.0
2017-Oct-12 05:52N 26°07' W 080°06'0 0.0
2017-Oct-12 05:22N 26°07' W 080°06'0 0.0
2017-Oct-12 04:52N 26°07' W 080°06'0 0.0
2017-Oct-12 04:22N 26°07' W 080°06'0 0.0
2017-Oct-12 03:52N 26°07' W 080°06'0 0.0
2017-Oct-12 03:22N 26°07' W 080°06'0 0.0
2017-Oct-12 02:52N 26°07' W 080°06'0 0.0
2017-Oct-12 02:22N 26°07' W 080°06'0 0.0
2017-Oct-12 01:52N 26°07' W 080°06'0 0.0
2017-Oct-12 01:22N 26°07' W 080°06'0 0.0
2017-Oct-12 00:52N 26°07' W 080°06'0 0.0
2017-Oct-12 00:19N 26°07' W 080°06'0 0.0
2017-Oct-11 23:55N 26°07' W 080°06'0 0.0
2017-Oct-11 23:28N 26°07' W 080°06'0 0.0
2017-Oct-11 22:58N 26°07' W 080°06'0 0.0
2017-Oct-11 22:28N 26°07' W 080°06'0 0.0
2017-Oct-11 21:58N 26°07' W 080°06'0 0.0
2017-Oct-11 21:28N 26°07' W 080°06'0 0.0
2017-Oct-11 20:58N 26°07' W 080°06'0 0.0
2017-Oct-11 20:16N 26°07' W 080°06'0 0.0
2017-Oct-11 19:58N 26°07' W 080°06'0 0.0
2017-Oct-11 19:25N 26°07' W 080°06'0 0.0
2017-Oct-11 18:55N 26°07' W 080°06'0 0.0
2017-Oct-11 18:28N 26°07' W 080°06'0 0.0
2017-Oct-11 17:58N 26°07' W 080°06'0 0.0
2017-Oct-11 17:28N 26°07' W 080°06'0 0.0
2017-Oct-11 16:34N 26°07' W 080°06'0 0.0
2017-Oct-10 23:52N 26°07' W 080°06'0 0.0
2017-Oct-10 23:22N 26°07' W 080°06'0 0.0
2017-Oct-10 22:52N 26°07' W 080°06'0 0.0
2017-Oct-10 22:22N 26°07' W 080°06'0 0.0
2017-Oct-10 21:52N 26°07' W 080°06'0 0.0
2017-Oct-10 21:07N 26°07' W 080°06'0 0.0
2017-Oct-10 20:49N 26°07' W 080°06'0 0.0
2017-Oct-10 20:28N 26°07' W 080°06'0 0.0
2017-Oct-10 19:58N 26°07' W 080°06'0 0.0
2017-Oct-10 19:28N 26°07' W 080°06'0 0.0
2017-Oct-10 18:58N 26°07' W 080°06'0 0.0
2017-Oct-10 18:28N 26°07' W 080°06'  

Dump ship's entire track history